»·PEaware :: N597SP KCMA-KSNA

N597SP :: KCMA-KSNA

FLIGHT INFORMATION

Flight Status: Arrived
Operator: Privately registered:
United States
More flights under this callsign
Pilot: Nathan C. (29383)
Aircraft: CESSNA 172 SKYHAWK
(C172)
More flights by this aircraft type
Origin: KCMA Camarillo
United States
Destination: KSNA John Wayne-Orange Co
United States
More flights between these airports :: More routes between these airports
Route: KCMA SUANA LAX VPLMS KSNA
File this flight plan on PilotEdge
Remarks: Cat 10 rating
Altitude:
(Current/Filed)
5,500ft
Speed:
(Current/Filed)
90kts
Departed: 21-May-20 07:09 PM
Arrived: 21-May-20 08:02 PM
Distance/Time
Traveled:
69nm/0:53
Distance/Time
To Go:
Arrived

Flight Plot

Page will automatically refresh every two minutes.


Map Options




Map Legend


Flown Route
Filed Route
Departure Airport
Arrival Airport
Navaid (VOR, NDB)
Fix

Horizontal Profiles

Position Reports

Time Latitude Longitude Heading Altitude Ground
Speed
21-May-20 18:47 34.210350 -119.076468 90 79ft 0kts
21-May-20 18:48 34.210350 -119.076468 90 79ft 0kts
21-May-20 18:49 34.210350 -119.076468 90 79ft 0kts
21-May-20 18:50 34.210350 -119.076468 90 79ft 0kts
21-May-20 18:51 34.210350 -119.076468 90 79ft 0kts
21-May-20 18:52 34.210350 -119.076468 90 79ft 0kts
21-May-20 18:53 34.210350 -119.076468 90 79ft 0kts
21-May-20 18:54 34.210350 -119.076468 90 79ft 0kts
21-May-20 18:55 34.210350 -119.076468 90 79ft 0kts
21-May-20 18:56 34.210350 -119.076468 90 79ft 0kts
21-May-20 18:57 34.210350 -119.076468 90 79ft 0kts
21-May-20 18:58 34.210350 -119.076468 90 79ft 0kts
21-May-20 18:59 34.210795 -119.075096 65 81ft 1kts
21-May-20 19:00 34.211216 -119.075667 272 80ft 10kts
21-May-20 19:01 34.211247 -119.079102 270 78ft 9kts
21-May-20 19:02 34.211265 -119.082121 270 76ft 8kts
21-May-20 19:03 34.211341 -119.084473 305 74ft 5kts
21-May-20 19:04 34.212599 -119.084617 359 75ft 5kts
21-May-20 19:05 34.212904 -119.084615 1 76ft 0kts
21-May-20 19:06 34.212904 -119.084615 1 76ft 0kts
21-May-20 19:07 34.213666 -119.085411 271 76ft 1kts
21-May-20 19:08 34.213653 -119.103507 266 595ft 79kts
21-May-20 19:09 34.223490 -119.120137 3 1573ft 93kts
21-May-20 19:10 34.230717 -119.092613 89 2508ft 97kts
21-May-20 19:11 34.231348 -119.059110 89 3372ft 99kts
21-May-20 19:12 34.232051 -119.025476 93 4207ft 101kts
21-May-20 19:13 34.233963 -118.991634 90 5003ft 101kts
21-May-20 19:14 34.228954 -118.958039 108 5466ft 101kts
21-May-20 19:15 34.221660 -118.924737 91 5547ft 103kts
21-May-20 19:16 34.215461 -118.890469 95 5594ft 106kts
21-May-20 19:17 34.213709 -118.854087 92 5496ft 109kts
21-May-20 19:18 34.209644 -118.817550 97 5422ft 108kts
21-May-20 19:19 34.203048 -118.785114 103 5464ft 102kts
21-May-20 19:20 34.194110 -118.751583 107 5465ft 105kts
21-May-20 19:21 34.184913 -118.718097 113 5502ft 105kts
21-May-20 19:22 34.172684 -118.686015 109 5524ft 105kts
21-May-20 19:23 34.161219 -118.653620 101 5553ft 104kts
21-May-20 19:24 34.156059 -118.619136 94 5573ft 104kts
21-May-20 19:25 34.148911 -118.585130 97 5594ft 104kts
21-May-20 19:26 34.142197 -118.550843 102 5506ft 107kts
21-May-20 19:27 34.130758 -118.518096 117 5447ft 105kts
21-May-20 19:28 34.126861 -118.484883 71 5496ft 90kts
21-May-20 19:29 34.142498 -118.487629 262 5417ft 96kts
21-May-20 19:30 34.124877 -118.512580 227 5486ft 95kts
21-May-20 19:31 34.102714 -118.514133 135 5572ft 96kts
21-May-20 19:32 34.082763 -118.493785 154 5430ft 93kts
21-May-20 19:33 34.057589 -118.486743 173 5400ft 92kts
21-May-20 19:34 34.033001 -118.481745 147 5413ft 90kts
21-May-20 19:35 34.012183 -118.464495 157 5432ft 91kts
21-May-20 19:36 33.987369 -118.460920 157 5385ft 102kts
21-May-20 19:37 33.960775 -118.444294 166 5452ft 108kts
21-May-20 19:38 33.932396 -118.432590 134 5555ft 111kts
21-May-20 19:39 33.911932 -118.405398 133 5605ft 110kts
21-May-20 19:40 33.886556 -118.382537 135 5563ft 114kts
21-May-20 19:41 33.862828 -118.356628 137 5524ft 115kts
21-May-20 19:42 33.838920 -118.331633 132 5463ft 114kts
21-May-20 19:43 33.815698 -118.305009 132 5402ft 114kts
21-May-20 19:44 33.792243 -118.278861 136 5354ft 114kts
21-May-20 19:45 33.765671 -118.257747 146 5332ft 114kts
21-May-20 19:46 33.739168 -118.238940 149 5351ft 115kts
21-May-20 19:47 33.717921 -118.214567 77 5128ft 110kts
21-May-20 19:48 33.721367 -118.187024 77 4680ft 109kts
21-May-20 19:49 33.721496 -118.160949 0 4073ft 0kts
21-May-20 19:50 33.718847 -118.127511 87 3129ft 109kts
21-May-20 19:51 33.721209 -118.091714 75 2517ft 104kts
21-May-20 19:52 33.724818 -118.057368 87 2468ft 105kts
21-May-20 19:53 33.723865 -118.021927 88 2437ft 105kts
21-May-20 19:54 33.722151 -117.986504 87 2458ft 106kts
21-May-20 19:55 33.722862 -117.950805 83 2482ft 106kts
21-May-20 19:56 33.728507 -117.916917 74 1949ft 103kts
21-May-20 19:57 33.727447 -117.885482 120 1273ft 85kts
21-May-20 19:59 33.716450 -117.863318 130 769ft 76kts
21-May-20 20:00 33.701545 -117.852373 191 497ft 59kts
21-May-20 20:01 33.687232 -117.861491 209 229ft 58kts
21-May-20 20:02 33.676195 -117.868536 206 60ft 22kts
21-May-20 20:03 33.672346 -117.871329 240 60ft 9kts
21-May-20 20:04 33.671843 -117.873269 298 60ft 5kts
21-May-20 20:05 33.671939 -117.873465 297 60ft 0kts
21-May-20 20:06 33.671939 -117.873465 297 60ft 0kts

Navigation Log

Ident Type
Flight plan parsing failed, navigation log unavailable